Breakabeen, New York
Current Conditions -  °F | °C
As of 3:12 PM on Thursday 23 Oct 2014 (Local Time) from KALB Reporting Station
Overcast Overcast  
Wind Chill: 45°   Ceiling: 1500
Heat Index: 49°   Visibility: 10mi
Dew Point: 44°   Wind: 10mph
Humidity: 83%   Direction: 10°N
Pressure: 29.82"   Gusts: NA
Location:  42.5337°N, 74.3385°W
Report Text: KALB 231912Z 01009KT 10SM FEW010 BKN015 OVC020 09/07 A2982 RMK AO2 T00940067
Loading
Personal Weather Stations






























Interactive Weather Map New forecast layout! Learn more

10-Day Weather Forecast

Advertisements
Track Severe Weather on mobile